sensor_id;sensor_type;location;lat;lon;timestamp;P1;durP1;ratioP1;P2;durP2;ratioP2
5519;SDS011;2782;52.362;10.012;2023-04-03T00:00:00;13.05;;;5.38;;
5519;SDS011;2782;52.362;10.012;2023-04-03T00:01:00;12.10;;;4.57;;
5519;SDS011;2782;52.362;10.012;2023-04-03T00:02:02;11.18;;;4.95;;
5519;SDS011;2782;52.362;10.012;2023-04-03T00:03:03;10.27;;;4.50;;
5519;SDS011;2782;52.362;10.012;2023-04-03T00:04:05;14.02;;;5.22;;
5519;SDS011;2782;52.362;10.012;2023-04-03T00:05:06;13.52;;;3.95;;
5519;SDS011;2782;52.362;10.012;2023-04-03T00:06:08;13.20;;;4.95;;
5519;SDS011;2782;52.362;10.012;2023-04-03T00:07:10;12.25;;;4.68;;
5519;SDS011;2782;52.362;10.012;2023-04-03T00:08:12;11.57;;;5.15;;
5519;SDS011;2782;52.362;10.012;2023-04-03T00:09:13;12.50;;;4.63;;
5519;SDS011;2782;52.362;10.012;2023-04-03T00:10:14;14.10;;;4.85;;
5519;SDS011;2782;52.362;10.012;2023-04-03T00:11:16;15.27;;;4.60;;
5519;SDS011;2782;52.362;10.012;2023-04-03T00:12:18;12.73;;;4.80;;
5519;SDS011;2782;52.362;10.012;2023-04-03T00:13:18;10.03;;;4.23;;
5519;SDS011;2782;52.362;10.012;2023-04-03T00:14:20;12.70;;;4.70;;
5519;SDS011;2782;52.362;10.012;2023-04-03T00:15:23;11.85;;;4.20;;
5519;SDS011;2782;52.362;10.012;2023-04-03T00:16:24;11.45;;;4.18;;
5519;SDS011;2782;52.362;10.012;2023-04-03T00:17:25;13.45;;;4.45;;
5519;SDS011;2782;52.362;10.012;2023-04-03T00:18:26;11.30;;;4.50;;
5519;SDS011;2782;52.362;10.012;2023-04-03T00:19:28;11.65;;;3.60;;
5519;SDS011;2782;52.362;10.012;2023-04-03T00:20:29;13.57;;;4.87;;
5519;SDS011;2782;52.362;10.012;2023-04-03T00:21:30;12.90;;;4.80;;
5519;SDS011;2782;52.362;10.012;2023-04-03T00:22:31;16.17;;;4.10;;
5519;SDS011;2782;52.362;10.012;2023-04-03T00:23:34;10.70;;;4.00;;
5519;SDS011;2782;52.362;10.012;2023-04-03T00:24:35;8.60;;;3.78;;
5519;SDS011;2782;52.362;10.012;2023-04-03T00:25:37;8.38;;;3.78;;
5519;SDS011;2782;52.362;10.012;2023-04-03T00:26:38;9.53;;;4.27;;
5519;SDS011;2782;52.362;10.012;2023-04-03T00:27:39;13.77;;;4.03;;
5519;SDS011;2782;52.362;10.012;2023-04-03T00:28:40;13.32;;;4.47;;
5519;SDS011;2782;52.362;10.012;2023-04-03T00:29:42;9.50;;;3.97;;
5519;SDS011;2782;52.362;10.012;2023-04-03T00:30:44;9.90;;;4.27;;
5519;SDS011;2782;52.362;10.012;2023-04-03T00:31:46;8.90;;;4.00;;
5519;SDS011;2782;52.362;10.012;2023-04-03T00:32:47;10.27;;;4.10;;
5519;SDS011;2782;52.362;10.012;2023-04-03T00:33:49;6.72;;;3.40;;
5519;SDS011;2782;52.362;10.012;2023-04-03T00:34:50;9.27;;;3.90;;
5519;SDS011;2782;52.362;10.012;2023-04-03T00:35:51;11.38;;;4.30;;
5519;SDS011;2782;52.362;10.012;2023-04-03T00:36:52;8.90;;;4.17;;
5519;SDS011;2782;52.362;10.012;2023-04-03T00:37:54;9.02;;;3.05;;
5519;SDS011;2782;52.362;10.012;2023-04-03T00:38:56;8.10;;;4.03;;
5519;SDS011;2782;52.362;10.012;2023-04-03T00:39:57;9.23;;;3.80;;
5519;SDS011;2782;52.362;10.012;2023-04-03T00:40:58;9.00;;;3.47;;
5519;SDS011;2782;52.362;10.012;2023-04-03T00:42:00;8.38;;;3.72;;
5519;SDS011;2782;52.362;10.012;2023-04-03T00:43:00;6.73;;;3.37;;
5519;SDS011;2782;52.362;10.012;2023-04-03T00:44:17;13.52;;;4.38;;
5519;SDS011;2782;52.362;10.012;2023-04-03T00:45:24;7.45;;;4.28;;
5519;SDS011;2782;52.362;10.012;2023-04-03T00:46:36;13.10;;;4.40;;
5519;SDS011;2782;52.362;10.012;2023-04-03T00:47:37;7.38;;;3.45;;
5519;SDS011;2782;52.362;10.012;2023-04-03T00:48:40;9.52;;;3.95;;
5519;SDS011;2782;52.362;10.012;2023-04-03T00:49:43;8.85;;;3.42;;
5519;SDS011;2782;52.362;10.012;2023-04-03T00:50:45;12.20;;;4.05;;
5519;SDS011;2782;52.362;10.012;2023-04-03T00:51:48;9.23;;;3.38;;
5519;SDS011;2782;52.362;10.012;2023-04-03T00:52:48;7.10;;;3.50;;
5519;SDS011;2782;52.362;10.012;2023-04-03T00:53:51;8.25;;;3.35;;
5519;SDS011;2782;52.362;10.012;2023-04-03T00:54:57;8.45;;;3.65;;
5519;SDS011;2782;52.362;10.012;2023-04-03T00:56:01;8.63;;;3.17;;
5519;SDS011;2782;52.362;10.012;2023-04-03T00:57:04;7.55;;;3.40;;
5519;SDS011;2782;52.362;10.012;2023-04-03T00:58:06;11.32;;;3.63;;
5519;SDS011;2782;52.362;10.012;2023-04-03T00:59:10;10.63;;;3.55;;
5519;SDS011;2782;52.362;10.012;2023-04-03T01:00:13;9.02;;;3.10;;
5519;SDS011;2782;52.362;10.012;2023-04-03T01:01:18;7.13;;;2.92;;
5519;SDS011;2782;52.362;10.012;2023-04-03T01:02:24;7.65;;;2.85;;
5519;SDS011;2782;52.362;10.012;2023-04-03T01:03:25;9.18;;;3.17;;
5519;SDS011;2782;52.362;10.012;2023-04-03T01:04:27;6.73;;;2.67;;
5519;SDS011;2782;52.362;10.012;2023-04-03T01:05:30;8.90;;;3.63;;
5519;SDS011;2782;52.362;10.012;2023-04-03T01:06:32;9.00;;;3.50;;
5519;SDS011;2782;52.362;10.012;2023-04-03T01:07:36;5.03;;;2.75;;
5519;SDS011;2782;52.362;10.012;2023-04-03T01:08:37;7.90;;;2.70;;
5519;SDS011;2782;52.362;10.012;2023-04-03T01:09:39;5.95;;;2.67;;
5519;SDS011;2782;52.362;10.012;2023-04-03T01:10:41;9.48;;;3.42;;
5519;SDS011;2782;52.362;10.012;2023-04-03T01:11:43;11.57;;;3.50;;
5519;SDS011;2782;52.362;10.012;2023-04-03T01:12:45;6.90;;;3.33;;
5519;SDS011;2782;52.362;10.012;2023-04-03T01:13:48;8.65;;;2.60;;
5519;SDS011;2782;52.362;10.012;2023-04-03T01:14:50;8.40;;;3.40;;
5519;SDS011;2782;52.362;10.012;2023-04-03T01:15:53;6.97;;;3.25;;
5519;SDS011;2782;52.362;10.012;2023-04-03T01:16:54;7.30;;;2.93;;
5519;SDS011;2782;52.362;10.012;2023-04-03T01:17:57;5.97;;;2.40;;
5519;SDS011;2782;52.362;10.012;2023-04-03T01:19:00;7.82;;;2.70;;
5519;SDS011;2782;52.362;10.012;2023-04-03T01:20:11;7.10;;;3.03;;
5519;SDS011;2782;52.362;10.012;2023-04-03T01:21:47;5.82;;;2.75;;
5519;SDS011;2782;52.362;10.012;2023-04-03T01:22:59;5.78;;;2.28;;
5519;SDS011;2782;52.362;10.012;2023-04-03T01:24:10;5.30;;;2.80;;
5519;SDS011;2782;52.362;10.012;2023-04-03T01:25:21;7.22;;;3.00;;
5519;SDS011;2782;52.362;10.012;2023-04-03T01:26:21;7.30;;;2.77;;
5519;SDS011;2782;52.362;10.012;2023-04-03T01:27:23;6.22;;;2.45;;
5519;SDS011;2782;52.362;10.012;2023-04-03T01:28:25;4.50;;;2.07;;
5519;SDS011;2782;52.362;10.012;2023-04-03T01:29:28;4.05;;;2.47;;
5519;SDS011;2782;52.362;10.012;2023-04-03T01:30:30;5.97;;;2.40;;
5519;SDS011;2782;52.362;10.012;2023-04-03T01:31:44;6.53;;;2.80;;
5519;SDS011;2782;52.362;10.012;2023-04-03T01:32:46;6.60;;;2.60;;
5519;SDS011;2782;52.362;10.012;2023-04-03T01:33:48;4.30;;;2.50;;
5519;SDS011;2782;52.362;10.012;2023-04-03T01:34:49;5.55;;;2.72;;
5519;SDS011;2782;52.362;10.012;2023-04-03T01:35:51;6.55;;;3.17;;
5519;SDS011;2782;52.362;10.012;2023-04-03T01:36:52;8.03;;;2.40;;
5519;SDS011;2782;52.362;10.012;2023-04-03T01:37:54;5.15;;;2.30;;
5519;SDS011;2782;52.362;10.012;2023-04-03T01:38:55;5.10;;;2.30;;
5519;SDS011;2782;52.362;10.012;2023-04-03T01:39:58;5.32;;;2.50;;
5519;SDS011;2782;52.362;10.012;2023-04-03T01:40:58;6.10;;;2.40;;
5519;SDS011;2782;52.362;10.012;2023-04-03T01:42:00;3.72;;;2.33;;
5519;SDS011;2782;52.362;10.012;2023-04-03T01:43:01;4.57;;;2.43;;
5519;SDS011;2782;52.362;10.012;2023-04-03T01:44:02;4.38;;;2.20;;
5519;SDS011;2782;52.362;10.012;2023-04-03T01:45:04;5.30;;;2.08;;
5519;SDS011;2782;52.362;10.012;2023-04-03T01:46:06;6.82;;;2.47;;
5519;SDS011;2782;52.362;10.012;2023-04-03T01:47:09;8.25;;;2.95;;
5519;SDS011;2782;52.362;10.012;2023-04-03T01:48:10;4.55;;;2.47;;
5519;SDS011;2782;52.362;10.012;2023-04-03T01:49:11;3.80;;;2.33;;
5519;SDS011;2782;52.362;10.012;2023-04-03T01:50:12;5.75;;;2.33;;
5519;SDS011;2782;52.362;10.012;2023-04-03T01:51:13;5.50;;;2.57;;
5519;SDS011;2782;52.362;10.012;2023-04-03T01:52:16;4.22;;;2.05;;
5519;SDS011;2782;52.362;10.012;2023-04-03T01:53:16;5.23;;;2.30;;
5519;SDS011;2782;52.362;10.012;2023-04-03T01:54:18;6.13;;;2.00;;
5519;SDS011;2782;52.362;10.012;2023-04-03T01:55:18;4.90;;;2.40;;
5519;SDS011;2782;52.362;10.012;2023-04-03T01:56:20;5.43;;;2.40;;
5519;SDS011;2782;52.362;10.012;2023-04-03T01:57:21;4.10;;;2.00;;
5519;SDS011;2782;52.362;10.012;2023-04-03T01:58:22;4.82;;;2.22;;
5519;SDS011;2782;52.362;10.012;2023-04-03T01:59:23;3.87;;;2.00;;
5519;SDS011;2782;52.362;10.012;2023-04-03T02:00:25;4.93;;;2.47;;
5519;SDS011;2782;52.362;10.012;2023-04-03T02:04:41;3.55;;;2.00;;
5519;SDS011;2782;52.362;10.012;2023-04-03T02:05:42;3.97;;;1.77;;
5519;SDS011;2782;52.362;10.012;2023-04-03T02:06:43;3.60;;;1.80;;
5519;SDS011;2782;52.362;10.012;2023-04-03T02:07:45;4.60;;;2.05;;
5519;SDS011;2782;52.362;10.012;2023-04-03T02:08:45;4.77;;;2.37;;
5519;SDS011;2782;52.362;10.012;2023-04-03T02:09:47;3.28;;;1.90;;
5519;SDS011;2782;52.362;10.012;2023-04-03T02:10:48;4.47;;;1.87;;
5519;SDS011;2782;52.362;10.012;2023-04-03T02:11:51;5.53;;;2.17;;
5519;SDS011;2782;52.362;10.012;2023-04-03T02:12:51;4.83;;;1.63;;
5519;SDS011;2782;52.362;10.012;2023-04-03T02:13:53;4.60;;;1.90;;
5519;SDS011;2782;52.362;10.012;2023-04-03T02:14:53;4.03;;;1.70;;
5519;SDS011;2782;52.362;10.012;2023-04-03T02:15:55;3.90;;;1.95;;
5519;SDS011;2782;52.362;10.012;2023-04-03T02:16:55;3.50;;;1.70;;
5519;SDS011;2782;52.362;10.012;2023-04-03T02:17:57;4.72;;;2.15;;
5519;SDS011;2782;52.362;10.012;2023-04-03T02:18:58;4.10;;;2.03;;
5519;SDS011;2782;52.362;10.012;2023-04-03T02:20:01;5.13;;;2.22;;
5519;SDS011;2782;52.362;10.012;2023-04-03T02:21:01;4.10;;;1.73;;
5519;SDS011;2782;52.362;10.012;2023-04-03T02:22:03;7.68;;;2.33;;
5519;SDS011;2782;52.362;10.012;2023-04-03T02:23:05;1.88;;;1.30;;
5519;SDS011;2782;52.362;10.012;2023-04-03T02:24:06;4.13;;;1.60;;
5519;SDS011;2782;52.362;10.012;2023-04-03T02:25:08;4.82;;;1.98;;
5519;SDS011;2782;52.362;10.012;2023-04-03T02:26:11;3.88;;;2.08;;
5519;SDS011;2782;52.362;10.012;2023-04-03T02:27:13;3.63;;;2.00;;
5519;SDS011;2782;52.362;10.012;2023-04-03T02:28:15;4.70;;;1.95;;
5519;SDS011;2782;52.362;10.012;2023-04-03T02:29:15;3.43;;;1.50;;
5519;SDS011;2782;52.362;10.012;2023-04-03T02:30:17;3.10;;;1.50;;
5519;SDS011;2782;52.362;10.012;2023-04-03T02:31:18;3.00;;;1.43;;
5519;SDS011;2782;52.362;10.012;2023-04-03T02:32:20;4.05;;;1.48;;
5519;SDS011;2782;52.362;10.012;2023-04-03T02:33:21;2.47;;;1.50;;
5519;SDS011;2782;52.362;10.012;2023-04-03T02:34:22;3.38;;;1.73;;
5519;SDS011;2782;52.362;10.012;2023-04-03T02:35:24;2.50;;;1.53;;
5519;SDS011;2782;52.362;10.012;2023-04-03T02:36:26;3.00;;;1.52;;
5519;SDS011;2782;52.362;10.012;2023-04-03T02:37:27;1.53;;;1.10;;
5519;SDS011;2782;52.362;10.012;2023-04-03T02:38:28;3.38;;;1.63;;
5519;SDS011;2782;52.362;10.012;2023-04-03T02:39:29;4.37;;;1.63;;
5519;SDS011;2782;52.362;10.012;2023-04-03T02:40:31;5.82;;;2.35;;
5519;SDS011;2782;52.362;10.012;2023-04-03T02:41:31;3.43;;;1.77;;
5519;SDS011;2782;52.362;10.012;2023-04-03T02:42:35;4.70;;;2.22;;
5519;SDS011;2782;52.362;10.012;2023-04-03T02:43:36;2.90;;;1.43;;
5519;SDS011;2782;52.362;10.012;2023-04-03T02:44:38;4.57;;;1.90;;
5519;SDS011;2782;52.362;10.012;2023-04-03T02:45:38;4.30;;;1.77;;
5519;SDS011;2782;52.362;10.012;2023-04-03T02:46:40;3.05;;;1.38;;
5519;SDS011;2782;52.362;10.012;2023-04-03T02:47:41;4.27;;;1.47;;
5519;SDS011;2782;52.362;10.012;2023-04-03T02:48:42;2.05;;;1.25;;
5519;SDS011;2782;52.362;10.012;2023-04-03T02:49:43;3.77;;;1.37;;
5519;SDS011;2782;52.362;10.012;2023-04-03T02:50:47;3.35;;;1.63;;
5519;SDS011;2782;52.362;10.012;2023-04-03T02:51:47;4.85;;;1.48;;
5519;SDS011;2782;52.362;10.012;2023-04-03T02:52:49;1.70;;;1.02;;
5519;SDS011;2782;52.362;10.012;2023-04-03T02:53:50;3.17;;;1.13;;
5519;SDS011;2782;52.362;10.012;2023-04-03T02:54:51;4.00;;;1.40;;
5519;SDS011;2782;52.362;10.012;2023-04-03T02:55:52;3.73;;;1.50;;
5519;SDS011;2782;52.362;10.012;2023-04-03T02:56:54;3.63;;;1.23;;
5519;SDS011;2782;52.362;10.012;2023-04-03T02:57:54;5.10;;;1.43;;
5519;SDS011;2782;52.362;10.012;2023-04-03T02:58:56;2.60;;;1.65;;
5519;SDS011;2782;52.362;10.012;2023-04-03T02:59:56;3.53;;;1.63;;
5519;SDS011;2782;52.362;10.012;2023-04-03T03:00:58;2.95;;;1.65;;
5519;SDS011;2782;52.362;10.012;2023-04-03T03:01:59;3.73;;;1.57;;
5519;SDS011;2782;52.362;10.012;2023-04-03T03:03:00;2.47;;;1.15;;
5519;SDS011;2782;52.362;10.012;2023-04-03T03:04:01;3.97;;;1.73;;
5519;SDS011;2782;52.362;10.012;2023-04-03T03:05:03;2.25;;;1.20;;
5519;SDS011;2782;52.362;10.012;2023-04-03T03:06:07;2.28;;;1.20;;
5519;SDS011;2782;52.362;10.012;2023-04-03T03:07:10;3.20;;;1.05;;
5519;SDS011;2782;52.362;10.012;2023-04-03T03:08:11;3.05;;;1.10;;
5519;SDS011;2782;52.362;10.012;2023-04-03T03:09:12;2.53;;;1.17;;
5519;SDS011;2782;52.362;10.012;2023-04-03T03:10:14;2.00;;;1.30;;
5519;SDS011;2782;52.362;10.012;2023-04-03T03:11:15;1.80;;;1.03;;
5519;SDS011;2782;52.362;10.012;2023-04-03T03:12:17;2.78;;;1.40;;
5519;SDS011;2782;52.362;10.012;2023-04-03T03:13:21;4.20;;;1.45;;
5519;SDS011;2782;52.362;10.012;2023-04-03T03:14:23;2.35;;;0.88;;
5519;SDS011;2782;52.362;10.012;2023-04-03T03:15:23;3.27;;;1.43;;
5519;SDS011;2782;52.362;10.012;2023-04-03T03:16:25;2.35;;;0.90;;
5519;SDS011;2782;52.362;10.012;2023-04-03T03:17:25;2.63;;;1.30;;
5519;SDS011;2782;52.362;10.012;2023-04-03T03:18:27;2.80;;;1.20;;
5519;SDS011;2782;52.362;10.012;2023-04-03T03:19:28;2.38;;;1.05;;
5519;SDS011;2782;52.362;10.012;2023-04-03T03:20:30;2.65;;;1.23;;
5519;SDS011;2782;52.362;10.012;2023-04-03T03:21:34;1.57;;;0.90;;
5519;SDS011;2782;52.362;10.012;2023-04-03T03:22:36;2.38;;;1.08;;
5519;SDS011;2782;52.362;10.012;2023-04-03T03:23:36;2.30;;;0.90;;
5519;SDS011;2782;52.362;10.012;2023-04-03T03:24:38;1.92;;;1.00;;
5519;SDS011;2782;52.362;10.012;2023-04-03T03:25:39;2.90;;;1.30;;
5519;SDS011;2782;52.362;10.012;2023-04-03T03:26:41;2.05;;;1.00;;
5519;SDS011;2782;52.362;10.012;2023-04-03T03:27:42;2.20;;;0.90;;
5519;SDS011;2782;52.362;10.012;2023-04-03T03:28:44;2.50;;;1.00;;
5519;SDS011;2782;52.362;10.012;2023-04-03T03:29:45;1.47;;;1.03;;
5519;SDS011;2782;52.362;10.012;2023-04-03T03:30:46;2.38;;;0.93;;
5519;SDS011;2782;52.362;10.012;2023-04-03T03:31:47;2.43;;;1.00;;
5519;SDS011;2782;52.362;10.012;2023-04-03T03:32:48;2.53;;;1.33;;
5519;SDS011;2782;52.362;10.012;2023-04-03T03:33:49;2.50;;;1.10;;
5519;SDS011;2782;52.362;10.012;2023-04-03T03:34:51;1.75;;;1.00;;
5519;SDS011;2782;52.362;10.012;2023-04-03T03:35:51;3.70;;;1.33;;
5519;SDS011;2782;52.362;10.012;2023-04-03T03:36:55;2.38;;;1.02;;
5519;SDS011;2782;52.362;10.012;2023-04-03T03:37:56;2.78;;;1.35;;
5519;SDS011;2782;52.362;10.012;2023-04-03T03:38:57;2.93;;;1.10;;
5519;SDS011;2782;52.362;10.012;2023-04-03T03:39:58;2.33;;;1.05;;
5519;SDS011;2782;52.362;10.012;2023-04-03T03:40:59;2.00;;;0.80;;
5519;SDS011;2782;52.362;10.012;2023-04-03T03:42:01;2.03;;;1.00;;
5519;SDS011;2782;52.362;10.012;2023-04-03T03:43:02;2.03;;;1.20;;
5519;SDS011;2782;52.362;10.012;2023-04-03T03:44:03;2.60;;;1.40;;
5519;SDS011;2782;52.362;10.012;2023-04-03T03:45:05;2.53;;;1.20;;
5519;SDS011;2782;52.362;10.012;2023-04-03T03:46:07;2.55;;;1.40;;
5519;SDS011;2782;52.362;10.012;2023-04-03T03:47:08;4.20;;;1.23;;
5519;SDS011;2782;52.362;10.012;2023-04-03T03:48:11;2.42;;;1.10;;
5519;SDS011;2782;52.362;10.012;2023-04-03T03:49:11;2.50;;;0.90;;
5519;SDS011;2782;52.362;10.012;2023-04-03T03:50:13;2.20;;;0.93;;
5519;SDS011;2782;52.362;10.012;2023-04-03T03:51:14;1.93;;;0.93;;
5519;SDS011;2782;52.362;10.012;2023-04-03T03:52:17;2.38;;;0.85;;
5519;SDS011;2782;52.362;10.012;2023-04-03T03:53:18;2.70;;;0.80;;
5519;SDS011;2782;52.362;10.012;2023-04-03T03:54:20;1.77;;;1.10;;
5519;SDS011;2782;52.362;10.012;2023-04-03T03:55:20;1.87;;;1.00;;
5519;SDS011;2782;52.362;10.012;2023-04-03T03:56:22;2.13;;;1.45;;
5519;SDS011;2782;52.362;10.012;2023-04-03T03:57:23;1.43;;;0.80;;
5519;SDS011;2782;52.362;10.012;2023-04-03T03:58:26;0.90;;;0.60;;
5519;SDS011;2782;52.362;10.012;2023-04-03T03:59:27;3.43;;;0.83;;
5519;SDS011;2782;52.362;10.012;2023-04-03T04:00:29;1.92;;;0.82;;
5519;SDS011;2782;52.362;10.012;2023-04-03T04:01:30;1.10;;;0.80;;
5519;SDS011;2782;52.362;10.012;2023-04-03T04:02:31;1.60;;;0.65;;
5519;SDS011;2782;52.362;10.012;2023-04-03T04:03:32;1.57;;;0.83;;
5519;SDS011;2782;52.362;10.012;2023-04-03T04:04:34;1.25;;;0.65;;
5519;SDS011;2782;52.362;10.012;2023-04-03T04:05:34;2.20;;;0.80;;
5519;SDS011;2782;52.362;10.012;2023-04-03T04:06:36;2.28;;;1.05;;
5519;SDS011;2782;52.362;10.012;2023-04-03T04:07:38;2.00;;;1.07;;
5519;SDS011;2782;52.362;10.012;2023-04-03T04:08:40;1.70;;;0.63;;
5519;SDS011;2782;52.362;10.012;2023-04-03T04:09:41;1.13;;;0.73;;
5519;SDS011;2782;52.362;10.012;2023-04-03T04:10:42;1.83;;;0.80;;
5519;SDS011;2782;52.362;10.012;2023-04-03T04:11:43;1.23;;;0.60;;
5519;SDS011;2782;52.362;10.012;2023-04-03T04:12:45;2.03;;;0.82;;
5519;SDS011;2782;52.362;10.012;2023-04-03T04:13:45;1.07;;;0.60;;
5519;SDS011;2782;52.362;10.012;2023-04-03T04:14:47;1.45;;;0.70;;
5519;SDS011;2782;52.362;10.012;2023-04-03T04:15:47;1.20;;;0.53;;
5519;SDS011;2782;52.362;10.012;2023-04-03T04:16:49;4.00;;;0.80;;
5519;SDS011;2782;52.362;10.012;2023-04-03T04:17:50;0.70;;;0.30;;
5519;SDS011;2782;52.362;10.012;2023-04-03T04:18:51;1.95;;;0.60;;
5519;SDS011;2782;52.362;10.012;2023-04-03T04:19:53;1.20;;;0.75;;
5519;SDS011;2782;52.362;10.012;2023-04-03T04:20:54;2.17;;;1.07;;
5519;SDS011;2782;52.362;10.012;2023-04-03T04:21:55;1.13;;;0.65;;
5519;SDS011;2782;52.362;10.012;2023-04-03T04:22:57;1.33;;;0.60;;
5519;SDS011;2782;52.362;10.012;2023-04-03T04:23:58;1.45;;;0.73;;
5519;SDS011;2782;52.362;10.012;2023-04-03T04:24:59;1.40;;;0.70;;
5519;SDS011;2782;52.362;10.012;2023-04-03T04:26:01;0.95;;;0.43;;
5519;SDS011;2782;52.362;10.012;2023-04-03T04:27:02;1.27;;;0.70;;
5519;SDS011;2782;52.362;10.012;2023-04-03T04:28:04;1.60;;;0.50;;
5519;SDS011;2782;52.362;10.012;2023-04-03T04:29:05;1.23;;;0.60;;
5519;SDS011;2782;52.362;10.012;2023-04-03T04:30:06;0.50;;;0.30;;
5519;SDS011;2782;52.362;10.012;2023-04-03T04:31:08;1.35;;;0.65;;
5519;SDS011;2782;52.362;10.012;2023-04-03T04:32:10;1.58;;;0.60;;
5519;SDS011;2782;52.362;10.012;2023-04-03T04:33:10;2.07;;;1.00;;
5519;SDS011;2782;52.362;10.012;2023-04-03T04:34:13;0.65;;;0.43;;
5519;SDS011;2782;52.362;10.012;2023-04-03T04:35:15;1.13;;;0.60;;
5519;SDS011;2782;52.362;10.012;2023-04-03T04:36:17;1.00;;;0.60;;
5519;SDS011;2782;52.362;10.012;2023-04-03T04:37:18;1.47;;;0.53;;
5519;SDS011;2782;52.362;10.012;2023-04-03T04:38:21;1.33;;;0.50;;
5519;SDS011;2782;52.362;10.012;2023-04-03T04:39:21;1.50;;;0.50;;
5519;SDS011;2782;52.362;10.012;2023-04-03T04:40:23;1.45;;;0.73;;
5519;SDS011;2782;52.362;10.012;2023-04-03T04:41:24;0.90;;;0.60;;
5519;SDS011;2782;52.362;10.012;2023-04-03T04:42:26;0.75;;;0.50;;
5519;SDS011;2782;52.362;10.012;2023-04-03T04:43:28;1.60;;;0.80;;
5519;SDS011;2782;52.362;10.012;2023-04-03T04:44:29;1.17;;;0.60;;
5519;SDS011;2782;52.362;10.012;2023-04-03T04:45:30;1.23;;;0.40;;
5519;SDS011;2782;52.362;10.012;2023-04-03T04:46:31;1.23;;;0.50;;
5519;SDS011;2782;52.362;10.012;2023-04-03T04:47:32;2.13;;;1.07;;
5519;SDS011;2782;52.362;10.012;2023-04-03T04:48:34;0.82;;;0.45;;
5519;SDS011;2782;52.362;10.012;2023-04-03T04:49:35;0.70;;;0.50;;
5519;SDS011;2782;52.362;10.012;2023-04-03T04:50:36;1.08;;;0.50;;
5519;SDS011;2782;52.362;10.012;2023-04-03T04:51:37;1.20;;;0.40;;
5519;SDS011;2782;52.362;10.012;2023-04-03T04:52:39;0.75;;;0.30;;
5519;SDS011;2782;52.362;10.012;2023-04-03T04:53:41;2.03;;;0.77;;
5519;SDS011;2782;52.362;10.012;2023-04-03T04:54:43;1.02;;;0.40;;
5519;SDS011;2782;52.362;10.012;2023-04-03T04:55:43;0.70;;;0.47;;
5519;SDS011;2782;52.362;10.012;2023-04-03T04:56:45;0.60;;;0.40;;
5519;SDS011;2782;52.362;10.012;2023-04-03T04:57:45;2.20;;;0.60;;
5519;SDS011;2782;52.362;10.012;2023-04-03T04:58:47;1.27;;;0.50;;
5519;SDS011;2782;52.362;10.012;2023-04-03T04:59:50;1.77;;;0.63;;
5519;SDS011;2782;52.362;10.012;2023-04-03T05:00:57;0.70;;;0.47;;
5519;SDS011;2782;52.362;10.012;2023-04-03T05:01:59;0.80;;;0.30;;
5519;SDS011;2782;52.362;10.012;2023-04-03T05:03:00;1.05;;;0.55;;
5519;SDS011;2782;52.362;10.012;2023-04-03T05:04:01;1.70;;;0.60;;
5519;SDS011;2782;52.362;10.012;2023-04-03T05:05:03;0.98;;;0.45;;
5519;SDS011;2782;52.362;10.012;2023-04-03T05:06:04;0.93;;;0.30;;
5519;SDS011;2782;52.362;10.012;2023-04-03T05:07:07;0.70;;;0.43;;
5519;SDS011;2782;52.362;10.012;2023-04-03T05:08:07;0.77;;;0.30;;
5519;SDS011;2782;52.362;10.012;2023-04-03T05:09:12;1.15;;;0.43;;
5519;SDS011;2782;52.362;10.012;2023-04-03T05:10:13;0.70;;;0.30;;
5519;SDS011;2782;52.362;10.012;2023-04-03T05:11:14;0.93;;;0.40;;
5519;SDS011;2782;52.362;10.012;2023-04-03T05:12:15;0.63;;;0.40;;
5519;SDS011;2782;52.362;10.012;2023-04-03T05:13:17;0.95;;;0.38;;
5519;SDS011;2782;52.362;10.012;2023-04-03T05:14:18;0.87;;;0.30;;
5519;SDS011;2782;52.362;10.012;2023-04-03T05:15:19;0.93;;;0.40;;
5519;SDS011;2782;52.362;10.012;2023-04-03T05:16:21;1.02;;;0.30;;
5519;SDS011;2782;52.362;10.012;2023-04-03T05:17:21;1.30;;;0.50;;
5519;SDS011;2782;52.362;10.012;2023-04-03T05:18:23;1.17;;;0.43;;
5519;SDS011;2782;52.362;10.012;2023-04-03T05:19:24;1.40;;;0.47;;
5519;SDS011;2782;52.362;10.012;2023-04-03T05:20:25;0.80;;;0.35;;
5519;SDS011;2782;52.362;10.012;2023-04-03T05:21:26;0.97;;;0.40;;
5519;SDS011;2782;52.362;10.012;2023-04-03T05:22:32;0.50;;;0.40;;
5519;SDS011;2782;52.362;10.012;2023-04-03T05:23:33;0.95;;;0.40;;
5519;SDS011;2782;52.362;10.012;2023-04-03T05:24:35;1.13;;;0.40;;
5519;SDS011;2782;52.362;10.012;2023-04-03T05:25:37;0.95;;;0.40;;
5519;SDS011;2782;52.362;10.012;2023-04-03T05:26:37;0.90;;;0.30;;
5519;SDS011;2782;52.362;10.012;2023-04-03T05:27:39;0.60;;;0.30;;
5519;SDS011;2782;52.362;10.012;2023-04-03T05:28:40;1.17;;;0.50;;
5519;SDS011;2782;52.362;10.012;2023-04-03T05:29:41;0.68;;;0.52;;
5519;SDS011;2782;52.362;10.012;2023-04-03T05:30:43;0.90;;;0.50;;
5519;SDS011;2782;52.362;10.012;2023-04-03T05:31:45;1.17;;;0.50;;
5519;SDS011;2782;52.362;10.012;2023-04-03T05:32:45;1.37;;;0.40;;
5519;SDS011;2782;52.362;10.012;2023-04-03T05:33:47;2.25;;;0.50;;
5519;SDS011;2782;52.362;10.012;2023-04-03T05:34:49;0.80;;;0.30;;
5519;SDS011;2782;52.362;10.012;2023-04-03T05:35:51;0.80;;;0.40;;
5519;SDS011;2782;52.362;10.012;2023-04-03T05:36:52;0.90;;;0.40;;
5519;SDS011;2782;52.362;10.012;2023-04-03T05:37:54;1.27;;;0.50;;
5519;SDS011;2782;52.362;10.012;2023-04-03T05:38:55;0.70;;;0.30;;
5519;SDS011;2782;52.362;10.012;2023-04-03T05:39:58;1.27;;;0.35;;
5519;SDS011;2782;52.362;10.012;2023-04-03T05:40:59;0.98;;;0.32;;
5519;SDS011;2782;52.362;10.012;2023-04-03T05:42:01;0.90;;;0.28;;
5519;SDS011;2782;52.362;10.012;2023-04-03T05:43:01;0.70;;;0.37;;
5519;SDS011;2782;52.362;10.012;2023-04-03T05:44:03;0.95;;;0.47;;
5519;SDS011;2782;52.362;10.012;2023-04-03T05:45:04;0.93;;;0.33;;
5519;SDS011;2782;52.362;10.012;2023-04-03T05:46:08;0.60;;;0.30;;
5519;SDS011;2782;52.362;10.012;2023-04-03T05:47:10;1.13;;;0.30;;
5519;SDS011;2782;52.362;10.012;2023-04-03T05:48:11;0.57;;;0.40;;
5519;SDS011;2782;52.362;10.012;2023-04-03T05:49:12;1.27;;;0.57;;
5519;SDS011;2782;52.362;10.012;2023-04-03T05:50:14;1.40;;;0.40;;
5519;SDS011;2782;52.362;10.012;2023-04-03T05:51:15;0.50;;;0.30;;
5519;SDS011;2782;52.362;10.012;2023-04-03T05:52:20;0.70;;;0.43;;
5519;SDS011;2782;52.362;10.012;2023-04-03T05:53:25;0.60;;;0.30;;
5519;SDS011;2782;52.362;10.012;2023-04-03T05:54:29;2.38;;;0.40;;
5519;SDS011;2782;52.362;10.012;2023-04-03T05:55:32;0.93;;;0.60;;
5519;SDS011;2782;52.362;10.012;2023-04-03T05:56:33;0.85;;;0.50;;
5519;SDS011;2782;52.362;10.012;2023-04-03T05:57:35;1.92;;;0.38;;
5519;SDS011;2782;52.362;10.012;2023-04-03T05:58:35;0.90;;;0.30;;
5519;SDS011;2782;52.362;10.012;2023-04-03T05:59:37;0.70;;;0.30;;
5519;SDS011;2782;52.362;10.012;2023-04-03T06:00:37;0.87;;;0.40;;
5519;SDS011;2782;52.362;10.012;2023-04-03T06:01:40;0.93;;;0.30;;
5519;SDS011;2782;52.362;10.012;2023-04-03T06:02:42;0.80;;;0.40;;
5519;SDS011;2782;52.362;10.012;2023-04-03T06:03:43;0.98;;;0.45;;
5519;SDS011;2782;52.362;10.012;2023-04-03T06:04:44;0.80;;;0.40;;
5519;SDS011;2782;52.362;10.012;2023-04-03T06:05:46;0.65;;;0.30;;
5519;SDS011;2782;52.362;10.012;2023-04-03T06:06:48;0.70;;;0.30;;
5519;SDS011;2782;52.362;10.012;2023-04-03T06:07:51;2.10;;;0.50;;
5519;SDS011;2782;52.362;10.012;2023-04-03T06:08:52;2.25;;;0.55;;
5519;SDS011;2782;52.362;10.012;2023-04-03T06:09:53;4.53;;;0.70;;
5519;SDS011;2782;52.362;10.012;2023-04-03T06:10:58;3.50;;;0.73;;
5519;SDS011;2782;52.362;10.012;2023-04-03T06:11:58;2.22;;;0.60;;
5519;SDS011;2782;52.362;10.012;2023-04-03T06:13:00;4.30;;;0.75;;
5519;SDS011;2782;52.362;10.012;2023-04-03T06:14:01;2.85;;;0.50;;
5519;SDS011;2782;52.362;10.012;2023-04-03T06:15:04;8.60;;;0.70;;
5519;SDS011;2782;52.362;10.012;2023-04-03T06:16:08;6.00;;;0.90;;
5519;SDS011;2782;52.362;10.012;2023-04-03T06:17:10;5.40;;;0.88;;
5519;SDS011;2782;52.362;10.012;2023-04-03T06:18:12;4.22;;;1.00;;
5519;SDS011;2782;52.362;10.012;2023-04-03T06:19:13;9.32;;;1.15;;
5519;SDS011;2782;52.362;10.012;2023-04-03T06:20:15;5.63;;;1.15;;
5519;SDS011;2782;52.362;10.012;2023-04-03T06:21:16;12.47;;;1.37;;